Accueil
METAR-TAF:

METAR-TAF

Aéroports :

Aéroport de Castres-Mazamet

Castres, France

latitude: 43-33-25N, longitude: 2-17-21E, altitude: 239 m

Observation

Le bulletin a été fait il y a 11 minutes, à 06:00 UTC
Vent 19 kt de est/sud-est
Température 15°C
Humidité 72%
Pression 1018 hPa
Visibilité 10 km ou plus
pas de nuages en-dessous de 1500 mètres et pas de cumulonimbus.

METAR: LFCK 280600Z AUTO 12019KT CAVOK 15/10 Q1018 BECMG 14017G35KT

Heure: 08:11 (06:11 UTC)

Prévision

Le bulletin a été fait il y a 1 heure et 11 minutes, à 05:00 UTC
Prévision valable du 28 à 06 UTC au 28 à 15 UTC
Vent 17 kt de sud-est avec des rafales jusqu'à 35 kt
Visibilité 10 km ou plus
pas de nuages en-dessous de 1500 mètres et pas de cumulonimbus.

TAF: LFCK 280500Z 2806/2815 14017G35KT CAVOK

Observations et prévisions météorologiques de plus de 4000 aéroports (messages METAR et TAF).

Les stations disponibles sont représentées par des disques jaunes et rouges sur la carte.

Passer la souris dessus pour voir le nom de la station.

Cliquer dessus pour voir les observations et prévisions météorologiques.

Pour changer de carte: cliquez sur les boutons verts avec une croix noire pour zoomer, sur le bouton vert avec un tiret pour effectuer un zoom arrière, ou sur les flèches vertes pour les cartes adjacentes.


METAR-TAF: